Time;durP1;ratioP1;P1;durP2;ratioP2;P2;SDS_P1;SDS_P2;PMS_P1;PMS_P2;Temp;Humidity;BMP_temperature;BMP_pressure;BME280_temperature;BME280_humidity;BME280_pressure;Samples;Min_cycle;Max_cycle;Signal;HPM_P1;HPM_P2
2022/07/03 00:01:34;;;;;;;1.03;0.93;;;16.70;99.90;;;;;;5093810;28;20179;-39
2022/07/03 00:03:59;;;;;;;1.40;1.20;;;16.70;99.90;;;;;;5093452;28;20202;-38
2022/07/03 00:06:26;;;;;;;1.40;1.00;;;16.60;99.90;;;;;;5093473;28;20179;-39
2022/07/03 00:08:51;;;;;;;0.87;0.80;;;16.60;99.90;;;;;;5093294;28;20218;-40
2022/07/03 00:11:17;;;;;;;0.90;0.80;;;16.50;99.90;;;;;;5093425;28;20179;-38
2022/07/03 00:13:43;;;;;;;2.00;0.90;;;16.50;99.90;;;;;;5093231;28;20206;-40
2022/07/03 00:16:08;;;;;;;1.77;0.90;;;16.40;99.90;;;;;;5093607;28;20276;-40
2022/07/03 00:18:34;;;;;;;1.70;0.97;;;16.40;99.90;;;;;;5094494;28;20167;-39
2022/07/03 00:21:02;;;;;;;1.40;0.90;;;16.40;99.90;;;;;;5093014;28;20658;-40
2022/07/03 00:23:30;;;;;;;1.77;0.90;;;16.30;99.90;;;;;;5093023;28;20635;-39
2022/07/03 00:26:01;;;;;;;1.10;0.93;;;16.30;99.90;;;;;;5093355;28;20222;-39
2022/07/03 00:28:28;;;;;;;1.70;1.10;;;16.30;99.90;;;;;;5093205;28;20171;-42
2022/07/03 00:30:55;;;;;;;1.63;1.00;;;16.30;99.90;;;;;;5093385;28;20197;-41
2022/07/03 00:33:22;;;;;;;2.13;1.00;;;16.30;99.90;;;;;;5096598;28;20207;-41
2022/07/03 00:35:51;;;;;;;2.07;0.93;;;16.20;99.90;;;;;;5096928;28;20588;-40
2022/07/03 00:38:16;;;;;;;1.27;1.10;;;16.30;99.90;;;;;;5096765;28;20171;-41
2022/07/03 00:40:43;;;;;;;1.17;1.00;;;16.20;99.90;;;;;;5096787;28;20779;-39
2022/07/03 00:43:09;;;;;;;1.00;0.90;;;16.20;99.90;;;;;;5097064;28;20621;-41
2022/07/03 00:45:35;;;;;;;1.20;0.90;;;16.10;99.90;;;;;;5095436;28;20175;-41
2022/07/03 00:48:01;;;;;;;0.70;0.70;;;16.10;99.90;;;;;;5096485;28;20241;-41
2022/07/03 00:50:34;;;;;;;0.80;0.80;;;16.10;99.90;;;;;;5096256;28;20209;-41
2022/07/03 00:53:01;;;;;;;1.23;0.83;;;16.10;99.90;;;;;;5096555;28;20245;-41
2022/07/03 00:55:28;;;;;;;1.67;0.93;;;16.10;99.90;;;;;;5096260;28;20175;-41
2022/07/03 00:57:55;;;;;;;1.77;0.80;;;16.00;99.90;;;;;;5095005;28;20191;-41
2022/07/03 01:00:22;;;;;;;1.53;1.10;;;15.90;99.90;;;;;;5096133;28;20195;-41
2022/07/03 01:02:50;;;;;;;1.00;0.97;;;15.90;99.90;;;;;;5096477;28;20583;-40
2022/07/03 01:05:30;;;;;;;3.23;1.00;;;15.90;99.90;;;;;;5096369;28;20181;-41
2022/07/03 01:08:21;;;;;;;1.53;1.03;;;15.80;99.90;;;;;;5096248;28;20163;-41
2022/07/03 01:11:16;;;;;;;1.57;1.03;;;15.80;99.90;;;;;;5096399;28;20164;-42
2022/07/03 01:14:05;;;;;;;2.30;1.20;;;15.70;99.90;;;;;;5070274;28;20222;-40
2022/07/03 01:16:37;;;;;;;1.33;1.13;;;15.70;99.90;;;;;;5100269;28;20179;-39
2022/07/03 01:19:30;;;;;;;1.20;1.10;;;15.60;99.90;;;;;;5100143;28;20232;-38
2022/07/03 01:22:12;;;;;;;3.30;1.03;;;15.60;99.90;;;;;;5098964;28;20186;-40
2022/07/03 01:25:08;;;;;;;1.30;0.90;;;15.60;99.90;;;;;;5097372;28;20171;-41
2022/07/03 01:28:01;;;;;;;1.47;0.90;;;15.50;99.90;;;;;;5098853;28;20171;-40
2022/07/03 01:30:42;;;;;;;1.47;0.97;;;15.50;99.90;;;;;;5098721;28;20222;-41
2022/07/03 01:33:09;;;;;;;1.00;0.90;;;15.40;99.90;;;;;;5098877;28;20246;-39
2022/07/03 01:35:46;;;;;;;2.87;1.57;;;15.40;99.90;;;;;;5099542;28;20186;-39
2022/07/03 01:38:13;;;;;;;1.97;1.10;;;15.30;99.90;;;;;;5097301;28;20546;-38
2022/07/03 01:40:41;;;;;;;2.23;1.10;;;15.30;99.90;;;;;;5095433;28;20187;-40
2022/07/03 01:43:10;;;;;;;1.27;1.10;;;15.20;99.90;;;;;;5093545;28;20556;-39
2022/07/03 01:45:43;;;;;;;1.53;1.40;;;15.20;99.90;;;;;;5095440;28;20537;-40
2022/07/03 01:48:10;;;;;;;3.83;1.10;;;15.20;99.90;;;;;;5094037;28;20163;-40
2022/07/03 01:50:38;;;;;;;3.37;0.93;;;15.30;99.90;;;;;;5095286;28;20215;-39
2022/07/03 01:53:07;;;;;;;1.33;0.90;;;15.20;99.90;;;;;;5095149;28;20179;-40
2022/07/03 01:55:34;;;;;;;1.47;1.13;;;15.20;99.90;;;;;;5095264;28;20262;-40
2022/07/03 01:58:00;;;;;;;1.63;0.90;;;15.20;99.90;;;;;;5095213;28;20771;-39
2022/07/03 02:00:27;;;;;;;2.50;0.90;;;15.20;99.90;;;;;;5093672;28;20195;-39
2022/07/03 02:03:01;;;;;;;1.30;0.80;;;15.20;99.90;;;;;;5095521;28;20520;-41
2022/07/03 02:05:35;;;;;;;1.63;1.33;;;15.10;99.90;;;;;;5094880;28;20717;-39
2022/07/03 02:08:10;;;;;;;1.27;1.00;;;15.10;99.90;;;;;;5095210;28;20159;-41
2022/07/03 02:10:46;;;;;;;1.70;1.20;;;15.10;99.90;;;;;;5094785;28;20712;-40
2022/07/03 02:13:17;;;;;;;1.37;1.10;;;15.00;99.90;;;;;;5094709;28;20158;-41
2022/07/03 02:15:49;;;;;;;1.53;1.20;;;15.10;99.90;;;;;;5094784;28;20171;-41
2022/07/03 02:18:28;;;;;;;1.50;0.93;;;15.00;99.90;;;;;;5094699;28;20174;-40
2022/07/03 02:21:17;;;;;;;1.20;1.10;;;15.00;99.90;;;;;;5094652;28;20252;-41
2022/07/03 02:24:01;;;;;;;3.53;1.30;;;14.90;99.90;;;;;;5094760;28;20155;-41
2022/07/03 02:26:32;;;;;;;1.53;1.00;;;14.90;99.90;;;;;;5094812;28;20533;-40
2022/07/03 02:29:05;;;;;;;1.97;1.30;;;14.90;99.90;;;;;;5094417;28;20694;-41
2022/07/03 02:31:57;;;;;;;2.13;1.30;;;14.90;99.90;;;;;;5094496;28;20608;-40
2022/07/03 02:34:24;;;;;;;2.27;1.17;;;14.90;99.90;;;;;;5094289;28;20209;-40
2022/07/03 02:36:55;;;;;;;1.53;1.20;;;14.90;99.90;;;;;;5094438;28;20256;-40
2022/07/03 02:39:33;;;;;;;4.20;1.40;;;14.80;99.90;;;;;;5094549;28;20217;-40
2022/07/03 02:42:04;;;;;;;2.57;1.43;;;14.90;99.90;;;;;;5094528;28;20209;-41
2022/07/03 02:44:50;;;;;;;1.27;1.17;;;14.80;99.90;;;;;;5094220;28;20220;-40
2022/07/03 02:47:36;;;;;;;1.93;1.17;;;14.80;99.90;;;;;;5094088;28;20178;-40
2022/07/03 02:50:10;;;;;;;1.80;1.10;;;14.80;99.90;;;;;;5094531;28;20205;-40
2022/07/03 02:52:42;;;;;;;2.40;1.50;;;14.80;99.90;;;;;;5094277;28;20614;-40
2022/07/03 02:55:44;;;;;;;2.03;1.10;;;14.70;99.90;;;;;;5093213;28;20685;-40
2022/07/03 02:58:57;;;;;;;3.37;1.40;;;14.70;99.90;;;;;;5094132;28;20167;-39
2022/07/03 03:01:35;;;;;;;1.20;1.10;;;14.70;99.90;;;;;;5047793;28;20265;-40
2022/07/03 03:04:20;;;;;;;3.67;1.43;;;14.70;99.90;;;;;;5093887;28;20210;-40
2022/07/03 03:07:07;;;;;;;3.80;1.57;;;14.70;99.90;;;;;;5093950;28;20618;-40
2022/07/03 03:09:43;;;;;;;3.53;1.40;;;14.60;99.90;;;;;;5093935;28;20719;-40
2022/07/03 03:12:09;;;;;;;5.33;1.37;;;14.60;99.90;;;;;;5094145;28;20174;-41
2022/07/03 03:14:54;;;;;;;4.80;1.67;;;14.60;99.90;;;;;;5093755;28;20293;-40
2022/07/03 03:17:24;;;;;;;2.57;1.50;;;14.50;99.90;;;;;;5094064;28;20222;-39
2022/07/03 03:19:54;;;;;;;5.57;1.50;;;14.50;99.90;;;;;;5094258;28;20193;-38
2022/07/03 03:22:35;;;;;;;2.43;1.23;;;14.50;99.90;;;;;;5094091;28;20195;-39
2022/07/03 03:25:02;;;;;;;5.90;1.83;;;14.50;99.90;;;;;;5092553;28;20175;-39
2022/07/03 03:27:28;;;;;;;2.13;1.20;;;14.40;99.90;;;;;;5093971;28;20170;-39
2022/07/03 03:29:54;;;;;;;1.57;1.30;;;14.40;99.90;;;;;;5093542;28;20761;-39
2022/07/03 03:32:21;;;;;;;1.57;1.30;;;14.40;99.90;;;;;;5093682;28;20228;-38
2022/07/03 03:34:47;;;;;;;4.47;2.13;;;14.40;99.90;;;;;;5093458;28;20202;-39
2022/07/03 03:37:12;;;;;;;5.57;2.07;;;14.40;99.90;;;;;;5094062;28;20175;-41
2022/07/03 03:39:38;;;;;;;3.70;1.33;;;14.30;99.90;;;;;;5093641;28;20278;-40
2022/07/03 03:42:04;;;;;;;2.87;1.67;;;14.30;99.90;;;;;;5093508;28;20171;-40
2022/07/03 03:44:30;;;;;;;4.47;1.70;;;14.30;99.90;;;;;;5093461;28;20589;-38
2022/07/03 03:46:56;;;;;;;4.10;1.80;;;14.20;99.90;;;;;;5093316;28;20228;-40
2022/07/03 03:49:22;;;;;;;2.37;1.53;;;14.30;99.90;;;;;;5093287;28;20243;-39
2022/07/03 03:51:48;;;;;;;3.47;1.70;;;14.40;99.90;;;;;;5093336;28;20254;-39
2022/07/03 03:54:14;;;;;;;6.70;1.80;;;14.30;99.90;;;;;;5093203;28;20194;-39
2022/07/03 03:56:40;;;;;;;1.87;1.63;;;14.40;99.90;;;;;;5093157;28;20186;-40
2022/07/03 03:59:06;;;;;;;5.40;2.03;;;14.40;99.90;;;;;;5092992;28;20681;-40
2022/07/03 04:01:31;;;;;;;5.60;2.20;;;14.40;99.90;;;;;;5093620;28;20186;-40
2022/07/03 04:03:59;;;;;;;4.23;2.00;;;14.40;99.90;;;;;;5093351;28;20179;-39
2022/07/03 04:06:25;;;;;;;2.87;1.87;;;14.40;99.90;;;;;;5096245;28;20272;-39
2022/07/03 04:08:50;;;;;;;2.67;2.13;;;14.40;99.90;;;;;;5097175;28;20731;-40
2022/07/03 04:11:16;;;;;;;5.53;2.30;;;14.40;99.90;;;;;;5097479;28;20181;-38
2022/07/03 04:13:41;;;;;;;3.50;2.10;;;14.50;99.90;;;;;;5097047;28;20547;-40
2022/07/03 04:16:07;;;;;;;4.40;2.07;;;14.50;99.90;;;;;;5097347;28;20244;-40
2022/07/03 04:18:33;;;;;;;8.07;2.47;;;14.50;99.90;;;;;;5097173;28;20224;-41
2022/07/03 04:20:58;;;;;;;6.63;2.30;;;14.50;99.90;;;;;;5096769;28;20191;-41
2022/07/03 04:23:24;;;;;;;4.17;2.20;;;14.50;99.90;;;;;;5096866;28;20527;-41
2022/07/03 04:25:49;;;;;;;10.53;2.07;;;14.50;99.90;;;;;;5097122;28;20174;-39
2022/07/03 04:28:15;;;;;;;3.70;2.20;;;14.50;99.90;;;;;;5097204;28;20270;-41
2022/07/03 04:30:41;;;;;;;5.20;2.07;;;14.50;99.90;;;;;;5096740;28;20218;-40
2022/07/03 04:33:06;;;;;;;5.93;2.43;;;14.50;99.90;;;;;;5096685;28;20553;-40
2022/07/03 04:35:32;;;;;;;3.20;2.27;;;14.50;99.90;;;;;;5096721;28;20264;-39
2022/07/03 04:37:58;;;;;;;6.00;2.40;;;14.50;99.90;;;;;;5096643;28;20220;-40
2022/07/03 04:40:23;;;;;;;4.37;2.33;;;14.60;99.90;;;;;;5095306;28;20630;-38
2022/07/03 04:42:49;;;;;;;6.37;2.43;;;14.50;99.90;;;;;;5096750;28;20179;-40
2022/07/03 04:45:14;;;;;;;3.20;2.60;;;14.60;99.90;;;;;;5096530;28;20175;-41
2022/07/03 04:47:40;;;;;;;6.43;2.63;;;14.70;99.90;;;;;;5097039;28;20217;-40
2022/07/03 04:50:06;;;;;;;4.17;2.23;;;14.70;99.90;;;;;;5096334;28;20229;-41
2022/07/03 04:52:32;;;;;;;4.43;2.90;;;14.70;99.90;;;;;;5096816;28;20548;-42
2022/07/03 04:54:58;;;;;;;2.87;2.30;;;14.80;99.90;;;;;;5096163;28;20289;-39
2022/07/03 04:57:23;;;;;;;3.90;2.53;;;14.80;99.90;;;;;;5096322;28;20250;-41
2022/07/03 04:59:49;;;;;;;5.90;2.67;;;14.80;99.90;;;;;;5096391;28;20724;-41
2022/07/03 05:02:14;;;;;;;4.67;2.67;;;14.90;99.90;;;;;;5096424;28;20569;-39
2022/07/03 05:04:42;;;;;;;7.27;3.00;;;14.90;99.90;;;;;;5096066;28;20242;-40
2022/07/03 05:07:07;;;;;;;4.23;2.77;;;15.00;99.90;;;;;;5094888;28;20270;-39
2022/07/03 05:09:33;;;;;;;4.40;2.70;;;15.00;99.90;;;;;;5095988;28;20285;-40
2022/07/03 05:11:58;;;;;;;4.90;3.10;;;15.10;99.90;;;;;;5096034;28;20187;-40
2022/07/03 05:14:24;;;;;;;3.57;3.10;;;15.10;99.90;;;;;;5095995;28;20199;-41
2022/07/03 05:16:50;;;;;;;6.60;3.37;;;15.20;99.90;;;;;;5095059;28;20240;-41
2022/07/03 05:19:15;;;;;;;4.00;2.93;;;15.20;99.90;;;;;;5095779;28;20674;-41
2022/07/03 05:21:41;;;;;;;6.70;3.10;;;15.20;99.90;;;;;;5095682;28;20592;-38
2022/07/03 05:24:07;;;;;;;5.40;3.20;;;15.40;99.90;;;;;;5095764;28;20214;-40
2022/07/03 05:26:32;;;;;;;5.10;3.40;;;15.40;99.90;;;;;;5095632;28;20182;-40
2022/07/03 05:28:58;;;;;;;5.10;3.87;;;15.40;99.90;;;;;;5095798;28;20290;-40
2022/07/03 05:31:23;;;;;;;4.87;3.10;;;15.50;99.90;;;;;;5095850;28;20269;-40
2022/07/03 05:33:49;;;;;;;5.10;3.50;;;15.60;99.90;;;;;;5095507;28;20683;-40
2022/07/03 05:36:14;;;;;;;3.90;3.20;;;15.60;99.90;;;;;;5094266;28;20583;-40
2022/07/03 05:41:24;;;;;;;3.83;3.43;;;15.70;99.90;;;;;;5095852;28;20185;-40
2022/07/03 05:43:50;;;;;;;5.90;3.80;;;15.90;99.90;;;;;;5095534;28;20633;-39
2022/07/03 05:46:15;;;;;;;4.57;3.80;;;15.90;99.90;;;;;;5095597;28;20235;-38
2022/07/03 05:48:41;;;;;;;6.73;4.27;;;15.90;99.90;;;;;;5095518;28;20211;-38
2022/07/03 05:51:06;;;;;;;6.13;3.57;;;16.00;99.90;;;;;;5095439;28;20606;-40
2022/07/03 05:53:32;;;;;;;4.80;3.90;;;16.10;99.90;;;;;;5095113;28;20312;-40
2022/07/03 05:55:58;;;;;;;11.20;4.07;;;16.20;99.90;;;;;;5095416;28;20603;-38
2022/07/03 05:58:24;;;;;;;4.47;4.03;;;16.20;99.90;;;;;;5094985;28;20595;-40
2022/07/03 06:00:49;;;;;;;6.00;3.77;;;16.40;99.90;;;;;;5095063;28;20179;-39
2022/07/03 06:03:15;;;;;;;6.37;3.50;;;16.50;99.90;;;;;;5093771;28;20673;-39
2022/07/03 06:05:41;;;;;;;5.27;3.57;;;16.60;99.90;;;;;;5094930;28;20171;-40
2022/07/03 06:08:07;;;;;;;6.53;3.40;;;16.70;99.90;;;;;;5094835;28;20654;-38
2022/07/03 06:10:33;;;;;;;5.10;3.03;;;16.80;99.90;;;;;;5094783;28;20201;-38
2022/07/03 06:12:59;;;;;;;5.27;3.33;;;17.00;99.90;;;;;;5095219;28;20174;-38
2022/07/03 06:15:25;;;;;;;6.37;2.83;;;17.20;99.90;;;;;;5094645;28;20297;-41
2022/07/03 06:17:50;;;;;;;6.30;2.70;;;17.40;99.90;;;;;;5095003;28;20202;-39
2022/07/03 06:20:16;;;;;;;3.10;2.33;;;17.50;99.90;;;;;;5095277;28;20291;-38
2022/07/03 06:22:42;;;;;;;4.60;2.00;;;17.80;99.90;;;;;;5094914;28;20159;-41
2022/07/03 06:25:08;;;;;;;5.97;1.70;;;18.00;99.90;;;;;;5094510;28;20186;-41
2022/07/03 06:27:34;;;;;;;3.90;1.50;;;18.30;99.90;;;;;;5094841;28;20514;-40
2022/07/03 06:30:00;;;;;;;1.83;1.40;;;18.60;99.90;;;;;;5094354;28;20195;-38
2022/07/03 06:32:26;;;;;;;4.20;1.50;;;18.80;99.90;;;;;;5094490;28;20731;-38
2022/07/03 06:34:52;;;;;;;4.67;1.77;;;19.00;99.90;;;;;;5094352;28;20225;-40
2022/07/03 06:37:18;;;;;;;4.97;1.60;;;19.20;99.90;;;;;;5094555;28;20638;-38
2022/07/03 06:39:43;;;;;;;2.60;1.50;;;19.40;99.90;;;;;;5094276;28;20252;-39
2022/07/03 06:42:09;;;;;;;2.00;1.37;;;19.50;99.90;;;;;;5094562;28;20254;-39
2022/07/03 06:44:35;;;;;;;3.20;1.50;;;19.70;99.90;;;;;;5094226;28;20175;-41
2022/07/03 06:47:03;;;;;;;4.07;1.50;;;19.90;99.90;;;;;;5094154;28;20206;-37
2022/07/03 06:49:31;;;;;;;3.80;1.47;;;20.10;99.90;;;;;;5094654;28;20198;-41
2022/07/03 06:51:57;;;;;;;3.37;1.67;;;20.40;99.90;;;;;;5094363;28;20269;-40
2022/07/03 06:54:22;;;;;;;3.80;1.67;;;20.60;99.90;;;;;;5093974;28;20294;-39
2022/07/03 06:56:48;;;;;;;2.17;1.40;;;20.60;99.90;;;;;;5093984;28;20728;-37
2022/07/03 06:59:13;;;;;;;2.63;1.20;;;20.70;99.90;;;;;;5094040;28;20661;-38
2022/07/03 07:01:39;;;;;;;4.87;1.30;;;20.70;99.90;;;;;;5094267;28;20173;-38
2022/07/03 07:04:04;;;;;;;3.37;1.40;;;20.90;99.90;;;;;;5094595;28;20186;-41
2022/07/03 07:06:30;;;;;;;4.50;1.67;;;21.00;99.90;;;;;;5093892;28;20175;-39
2022/07/03 07:08:55;;;;;;;1.83;1.23;;;21.20;99.90;;;;;;5094080;28;20198;-39
2022/07/03 07:11:21;;;;;;;3.70;1.50;;;21.40;99.90;;;;;;5095261;28;20186;-40
2022/07/03 07:13:47;;;;;;;3.37;1.40;;;21.50;99.90;;;;;;5092412;28;20674;-39
2022/07/03 07:16:12;;;;;;;1.67;1.13;;;21.70;99.90;;;;;;5093941;28;20266;-40
2022/07/03 07:18:40;;;;;;;2.03;1.10;;;21.80;99.90;;;;;;5094666;28;20258;-40
2022/07/03 07:21:06;;;;;;;5.87;1.60;;;21.80;99.90;;;;;;5095592;28;20225;-41
2022/07/03 07:23:31;;;;;;;3.50;1.37;;;21.90;99.90;;;;;;5093619;28;20202;-41
2022/07/03 07:25:57;;;;;;;5.17;2.00;;;22.00;99.90;;;;;;5093578;28;20214;-40
2022/07/03 07:28:22;;;;;;;5.70;1.60;;;22.10;99.90;;;;;;5093452;28;20179;-40
2022/07/03 07:30:48;;;;;;;2.47;1.47;;;22.20;99.90;;;;;;5093533;28;20179;-40
2022/07/03 07:33:14;;;;;;;2.63;1.60;;;22.30;99.90;;;;;;5093443;28;20519;-39
2022/07/03 07:35:39;;;;;;;4.60;1.63;;;22.40;99.90;;;;;;5093454;28;20182;-40
2022/07/03 07:38:05;;;;;;;4.80;1.70;;;22.40;99.90;;;;;;5093493;28;20182;-39
2022/07/03 07:40:30;;;;;;;7.03;1.83;;;22.50;99.90;;;;;;5096858;28;20198;-40
2022/07/03 07:42:56;;;;;;;3.67;1.93;;;22.60;99.90;;;;;;5101674;28;20327;-40
2022/07/03 07:45:22;;;;;;;3.33;1.87;;;22.70;99.90;;;;;;5100121;28;20338;-41
2022/07/03 07:47:48;;;;;;;6.33;2.00;;;22.80;99.90;;;;;;5100401;28;20179;-37
2022/07/03 07:50:14;;;;;;;2.37;1.70;;;22.80;99.90;;;;;;5100042;28;20198;-39
2022/07/03 07:52:40;;;;;;;5.77;2.10;;;22.80;99.90;;;;;;5100187;28;20588;-39
2022/07/03 07:55:06;;;;;;;3.77;1.73;;;22.90;99.90;;;;;;5099907;28;20206;-40
2022/07/03 07:57:36;;;;;;;4.83;1.80;;;22.90;99.90;;;;;;5100523;28;20167;-38
2022/07/03 08:00:11;;;;;;;4.33;2.20;;;22.90;99.90;;;;;;5100147;28;20552;-39
2022/07/03 08:05:36;;;;;;;3.27;2.10;;;23.00;99.90;;;;;;5100550;28;20262;-39
2022/07/03 08:08:06;;;;;;;3.10;1.83;;;23.10;99.90;;;;;;5099870;28;20163;-39
2022/07/03 08:10:35;;;;;;;5.50;2.00;;;23.10;99.90;;;;;;5100081;28;20258;-40
2022/07/03 08:13:02;;;;;;;2.83;1.60;;;23.30;99.90;;;;;;5101270;28;20182;-40
2022/07/03 08:15:27;;;;;;;4.67;1.50;;;23.40;99.90;;;;;;5099759;28;20211;-40
2022/07/03 08:17:53;;;;;;;3.37;1.60;;;23.40;99.90;;;;;;5099867;28;20193;-39
2022/07/03 08:20:18;;;;;;;6.67;1.33;;;23.70;99.90;;;;;;5099604;28;20289;-39
2022/07/03 08:22:44;;;;;;;7.00;1.70;;;23.80;99.90;;;;;;5100138;28;20174;-43
2022/07/03 08:25:09;;;;;;;3.37;1.33;;;23.90;99.90;;;;;;5099782;28;20191;-44
2022/07/03 08:27:35;;;;;;;4.87;2.13;;;24.10;99.90;;;;;;5100066;28;20183;-45
2022/07/03 08:30:01;;;;;;;3.63;1.60;;;24.20;99.90;;;;;;5098323;28;20206;-43
2022/07/03 08:32:26;;;;;;;3.33;1.67;;;24.10;99.90;;;;;;5099542;28;20203;-44
2022/07/03 08:34:52;;;;;;;2.77;1.70;;;23.90;99.90;;;;;;5100224;28;20206;-43
2022/07/03 08:37:17;;;;;;;2.63;1.37;;;23.80;99.90;;;;;;5099655;28;20171;-45
2022/07/03 08:39:43;;;;;;;4.23;1.70;;;23.80;99.90;;;;;;5100383;28;20190;-42
2022/07/03 08:42:12;;;;;;;2.43;1.30;;;24.00;99.90;;;;;;5099912;28;20174;-44
2022/07/03 08:44:39;;;;;;;2.43;1.53;;;24.00;99.90;;;;;;5099944;28;20178;-45
2022/07/03 08:47:08;;;;;;;4.33;1.60;;;23.90;99.90;;;;;;5099578;28;20179;-42
2022/07/03 08:49:34;;;;;;;1.83;1.10;;;23.90;99.90;;;;;;5099788;28;20206;-44
2022/07/03 08:52:01;;;;;;;4.57;1.77;;;24.10;99.90;;;;;;5096945;28;20183;-44
2022/07/03 08:54:26;;;;;;;2.93;1.30;;;24.10;99.90;;;;;;5096614;28;20256;-43
2022/07/03 08:56:52;;;;;;;2.77;1.30;;;24.20;99.90;;;;;;5099930;28;20179;-45
2022/07/03 08:59:19;;;;;;;2.43;1.10;;;24.40;99.90;;;;;;5096300;28;20203;-42
2022/07/03 09:01:46;;;;;;;1.30;1.00;;;24.60;99.90;;;;;;5096182;28;20224;-43
2022/07/03 09:04:13;;;;;;;1.63;0.80;;;24.70;99.90;;;;;;5099202;28;20235;-43
2022/07/03 09:06:40;;;;;;;3.00;1.27;;;24.70;99.90;;;;;;5096098;28;20676;-44
2022/07/03 09:09:08;;;;;;;4.50;1.40;;;24.80;99.90;;;;;;5095962;28;20191;-44
2022/07/03 09:11:35;;;;;;;2.23;1.30;;;24.90;99.90;;;;;;5096247;28;20189;-45
2022/07/03 09:14:02;;;;;;;4.10;1.20;;;25.00;99.90;;;;;;5095991;28;20202;-44
2022/07/03 09:16:28;;;;;;;3.13;1.30;;;25.10;99.90;;;;;;5096203;28;20171;-44
2022/07/03 09:18:54;;;;;;;1.63;1.30;;;25.10;99.90;;;;;;5098926;28;20558;-44
2022/07/03 09:21:20;;;;;;;2.20;1.47;;;25.00;99.90;;;;;;5095962;28;20244;-43
2022/07/03 09:23:47;;;;;;;3.70;1.27;;;24.90;99.90;;;;;;5095745;28;20190;-44
2022/07/03 09:26:18;;;;;;;3.77;1.47;;;24.90;99.90;;;;;;5095726;28;20179;-44
2022/07/03 09:28:48;;;;;;;3.20;1.10;;;25.00;99.90;;;;;;5097485;28;20576;-44
2022/07/03 09:31:15;;;;;;;1.93;0.90;;;25.20;99.90;;;;;;5095992;28;20561;-44
2022/07/03 09:33:50;;;;;;;4.97;1.40;;;25.30;99.90;;;;;;5095749;28;20210;-44
2022/07/03 09:36:16;;;;;;;3.73;1.30;;;25.40;99.90;;;;;;5095835;28;20179;-43
2022/07/03 09:38:45;;;;;;;4.00;1.33;;;25.40;99.90;;;;;;5095665;28;20199;-44
2022/07/03 09:41:11;;;;;;;5.33;1.43;;;25.50;99.90;;;;;;5095737;28;20590;-44
2022/07/03 09:43:42;;;;;;;2.77;1.13;;;25.50;99.90;;;;;;5095630;28;20273;-45
2022/07/03 09:46:08;;;;;;;3.43;1.10;;;25.50;99.90;;;;;;5093996;28;20167;-43
2022/07/03 09:48:36;;;;;;;2.07;1.10;;;25.60;99.90;;;;;;5095285;28;20735;-44
2022/07/03 09:51:16;;;;;;;2.93;1.20;;;25.80;99.90;;;;;;5095503;28;20270;-43
2022/07/03 09:53:48;;;;;;;2.22;1.30;;;25.90;99.90;;;;;;5095436;28;20217;-44
2022/07/03 09:56:13;;;;;;;5.30;1.30;;;25.90;99.90;;;;;;5095423;28;20619;-45
2022/07/03 09:58:39;;;;;;;1.58;1.20;;;25.70;99.90;;;;;;5095055;28;20220;-43
2022/07/03 10:01:22;;;;;;;2.65;1.40;;;25.80;99.90;;;;;;5095322;28;20181;-44
2022/07/03 10:03:48;;;;;;;2.30;1.20;;;25.80;99.90;;;;;;5094934;28;20186;-43
2022/07/03 10:06:14;;;;;;;2.45;1.20;;;25.80;99.90;;;;;;5095190;28;20190;-42
2022/07/03 10:08:42;;;;;;;1.92;1.10;;;25.90;99.90;;;;;;5095124;28;20175;-43
2022/07/03 10:11:08;;;;;;;2.25;0.95;;;26.00;99.90;;;;;;5094920;28;20182;-44
2022/07/03 10:13:39;;;;;;;1.58;0.90;;;26.10;99.90;;;;;;5094981;28;20175;-44
2022/07/03 10:16:06;;;;;;;1.38;0.77;;;26.10;99.90;;;;;;5094850;28;20170;-45
2022/07/03 10:18:36;;;;;;;2.63;1.20;;;26.30;99.90;;;;;;5094667;28;20182;-44
2022/07/03 10:21:06;;;;;;;1.95;0.90;;;26.40;99.90;;;;;;5094710;28;20592;-44
2022/07/03 10:23:32;;;;;;;1.77;0.90;;;26.40;99.90;;;;;;5094868;28;20237;-43
2022/07/03 10:25:58;;;;;;;2.50;1.08;;;26.50;99.90;;;;;;5095476;28;20517;-43
2022/07/03 10:28:24;;;;;;;2.03;0.90;;;26.50;99.90;;;;;;5094666;28;20250;-44
2022/07/03 10:30:50;;;;;;;7.22;1.20;;;26.50;99.90;;;;;;5096257;28;20186;-44
2022/07/03 10:33:17;;;;;;;1.08;0.90;;;26.60;99.90;;;;;;5094642;28;20249;-44
2022/07/03 10:35:51;;;;;;;1.95;1.10;;;26.60;99.90;;;;;;5095448;28;20654;-44
2022/07/03 10:38:20;;;;;;;2.00;1.10;;;26.70;99.90;;;;;;5095656;28;20214;-44
2022/07/03 10:46:34;;;;;;;2.67;1.00;;;26.80;99.90;;;;;;5095130;28;20170;-44
2022/07/03 10:49:03;;;;;;;3.08;0.90;;;26.50;99.90;;;;;;5094615;28;20194;-45
2022/07/03 10:51:31;;;;;;;1.42;0.90;;;26.60;99.90;;;;;;5095708;28;20194;-45
2022/07/03 10:54:19;;;;;;;1.17;0.82;;;26.50;99.90;;;;;;5095563;28;20230;-46
2022/07/03 10:57:00;;;;;;;5.03;1.20;;;26.60;99.90;;;;;;5095628;28;20221;-44
2022/07/03 10:59:32;;;;;;;1.50;0.85;;;26.40;99.90;;;;;;5095281;28;20195;-45
2022/07/03 11:02:36;;;;;;;1.00;0.93;;;26.30;99.90;;;;;;5095467;28;20175;-44
2022/07/03 11:05:01;;;;;;;4.00;1.05;;;26.40;99.90;;;;;;5095507;28;20185;-44
2022/07/03 11:07:31;;;;;;;4.03;1.48;;;26.60;99.90;;;;;;5094982;28;20178;-44
2022/07/03 11:10:09;;;;;;;2.22;1.00;;;26.80;99.90;;;;;;5094957;28;20290;-46
2022/07/03 11:12:58;;;;;;;1.05;0.90;;;26.90;99.90;;;;;;5093907;28;20184;-45
2022/07/03 11:15:38;;;;;;;1.27;0.82;;;26.80;99.90;;;;;;5093560;28;20248;-44
2022/07/03 11:18:19;;;;;;;2.47;0.93;;;26.80;99.90;;;;;;5097126;28;20191;-44
2022/07/03 11:20:44;;;;;;;1.25;0.80;;;26.80;99.90;;;;;;5095377;28;20236;-45
2022/07/03 11:23:10;;;;;;;1.65;0.90;;;26.80;99.90;;;;;;5093676;28;20178;-43
2022/07/03 11:25:47;;;;;;;1.98;1.13;;;26.90;99.90;;;;;;5093885;28;20182;-43
2022/07/03 11:28:33;;;;;;;1.65;1.00;;;27.00;99.90;;;;;;5093848;28;20638;-44
2022/07/03 11:31:10;;;;;;;2.38;1.00;;;27.30;99.90;;;;;;5093548;28;20206;-44
2022/07/03 11:34:08;;;;;;;1.20;1.10;;;27.20;99.90;;;;;;5093425;28;20706;-43
2022/07/03 11:36:34;;;;;;;1.77;0.85;;;27.20;99.90;;;;;;5059695;28;20642;-43
2022/07/03 11:38:59;;;;;;;2.28;0.93;;;27.10;99.90;;;;;;5093425;28;20198;-44
2022/07/03 11:41:37;;;;;;;1.90;0.90;;;27.10;99.90;;;;;;5093387;28;20202;-45
2022/07/03 11:44:07;;;;;;;3.03;0.90;;;27.10;99.90;;;;;;5093569;28;20216;-44
2022/07/03 11:46:36;;;;;;;1.27;0.80;;;26.90;99.90;;;;;;5093409;28;20185;-45
2022/07/03 11:49:16;;;;;;;2.55;1.00;;;27.00;99.90;;;;;;5093227;28;20693;-43
2022/07/03 11:51:43;;;;;;;0.90;0.73;;;27.10;99.90;;;;;;5093622;28;20475;-43
2022/07/03 11:54:09;;;;;;;2.20;1.00;;;27.30;99.90;;;;;;5095672;28;20298;-44
2022/07/03 11:56:36;;;;;;;5.00;1.00;;;27.30;99.90;;;;;;5093830;28;20333;-44
2022/07/03 11:59:04;;;;;;;1.02;0.70;;;27.40;99.90;;;;;;5093409;28;20194;-44
2022/07/03 12:01:37;;;;;;;2.05;0.70;;;27.50;99.90;;;;;;5093214;28;20171;-45
2022/07/03 12:04:09;;;;;;;1.15;0.70;;;27.70;99.90;;;;;;5093182;28;20731;-46
2022/07/03 12:06:37;;;;;;;4.72;0.75;;;27.80;99.90;;;;;;5093537;28;20221;-43
2022/07/03 12:09:10;;;;;;;4.20;0.80;;;27.90;99.90;;;;;;5093382;28;20720;-44
2022/07/03 12:11:36;;;;;;;4.28;0.82;;;27.90;99.90;;;;;;5093488;28;20162;-43
2022/07/03 12:14:02;;;;;;;1.25;0.93;;;27.90;99.90;;;;;;5089543;28;20203;-44
2022/07/03 12:16:34;;;;;;;3.97;0.90;;;27.90;99.90;;;;;;5073610;28;20585;-45
2022/07/03 12:19:06;;;;;;;2.47;0.93;;;27.90;99.90;;;;;;5073217;28;20203;-46
2022/07/03 12:21:37;;;;;;;1.25;0.77;;;27.90;99.90;;;;;;5072693;28;20191;-47
2022/07/03 12:24:10;;;;;;;4.40;0.80;;;27.80;99.90;;;;;;5073095;28;20183;-44
2022/07/03 12:26:36;;;;;;;2.17;0.65;;;27.70;99.90;;;;;;5076321;28;20634;-43
2022/07/03 12:29:05;;;;;;;1.38;0.70;;;27.70;99.90;;;;;;5087266;28;20697;-43
2022/07/03 12:31:31;;;;;;;1.17;0.73;;;27.90;99.90;;;;;;5092101;28;20235;-46
2022/07/03 12:33:58;;;;;;;1.58;0.90;;;27.90;99.90;;;;;;5084193;28;20578;-44
2022/07/03 12:36:24;;;;;;;2.42;0.90;;;27.80;99.90;;;;;;5088373;28;20266;-44
2022/07/03 12:38:55;;;;;;;2.90;0.95;;;27.70;99.90;;;;;;5087044;28;20329;-43
2022/07/03 12:41:23;;;;;;;2.08;1.35;;;27.70;99.90;;;;;;5085241;28;20183;-41
2022/07/03 12:43:50;;;;;;;1.85;0.73;;;27.50;99.90;;;;;;5084108;28;20183;-42
2022/07/03 12:46:21;;;;;;;2.72;0.70;;;27.40;99.90;;;;;;5082970;28;20257;-44
2022/07/03 12:48:54;;;;;;;4.13;0.98;;;27.40;99.90;;;;;;5090954;28;20206;-43
2022/07/03 12:51:39;;;;;;;2.50;0.80;;;27.40;99.90;;;;;;5091927;28;20191;-43
2022/07/03 12:54:07;;;;;;;1.17;0.70;;;27.20;99.90;;;;;;5094208;28;20666;-44
2022/07/03 12:56:32;;;;;;;1.90;0.60;;;27.20;99.90;;;;;;5095729;28;20175;-43
2022/07/03 12:59:16;;;;;;;0.65;0.50;;;27.40;99.90;;;;;;5096288;28;20202;-43
2022/07/03 13:01:43;;;;;;;1.58;0.80;;;27.50;99.90;;;;;;5095464;28;20265;-45
2022/07/03 13:04:14;;;;;;;1.45;0.90;;;27.50;99.90;;;;;;5097212;28;20183;-44
2022/07/03 13:06:41;;;;;;;1.35;0.77;;;27.40;99.90;;;;;;5094817;28;20183;-43
2022/07/03 13:09:06;;;;;;;0.85;0.75;;;27.30;99.90;;;;;;5096234;28;20226;-44
2022/07/03 13:11:33;;;;;;;2.25;0.80;;;27.40;99.90;;;;;;5095982;28;20233;-43